Time;durP1;ratioP1;P1;durP2;ratioP2;P2;SDS_P1;SDS_P2;PMS_P1;PMS_P2;Temp;Humidity;BMP_temperature;BMP_pressure;BME280_temperature;BME280_humidity;BME280_pressure;Samples;Min_cycle;Max_cycle;Signal;HPM_P1;HPM_P2
2023/04/09 00:01:20;;;;;;;49.63;23.05;;;;;;;6.97;100.00;102703.22;4947514;28;20038;-73
2023/04/09 00:03:52;;;;;;;53.45;24.05;;;;;;;6.97;100.00;102705.84;4947325;28;20097;-73
2023/04/09 00:06:17;;;;;;;49.35;22.98;;;;;;;6.98;100.00;102705.81;4944441;28;20134;-73
2023/04/09 00:08:42;;;;;;;53.67;24.55;;;;;;;6.99;100.00;102704.06;4944106;28;20268;-74
2023/04/09 00:11:08;;;;;;;50.15;23.88;;;;;;;7.00;100.00;102700.56;4930155;28;20045;-73
2023/04/09 00:13:34;;;;;;;46.58;22.13;;;;;;;7.00;100.00;102704.09;4962433;28;20469;-73
2023/04/09 00:15:59;;;;;;;52.80;24.63;;;;;;;7.02;100.00;102704.06;4964762;28;20744;-73
2023/04/09 00:18:25;;;;;;;54.80;23.98;;;;;;;7.01;100.00;102695.31;4965047;28;20038;-73
2023/04/09 00:20:50;;;;;;;51.13;23.40;;;;;;;7.02;100.00;102698.78;4964846;28;20494;-73
2023/04/09 00:23:16;;;;;;;48.28;23.73;;;;;;;7.03;100.00;102697.94;4963178;28;20034;-73
2023/04/09 00:25:41;;;;;;;53.95;24.83;;;;;;;7.03;100.00;102690.03;4962137;28;20560;-73
2023/04/09 00:28:07;;;;;;;50.08;23.05;;;;;;;7.03;100.00;102688.25;4964613;28;20053;-73
2023/04/09 00:30:32;;;;;;;51.53;24.27;;;;;;;7.02;100.00;102689.16;4964688;28;20049;-72
2023/04/09 00:32:58;;;;;;;49.30;23.65;;;;;;;7.02;100.00;102690.88;4962637;28;20105;-73
2023/04/09 00:35:24;;;;;;;53.70;24.10;;;;;;;7.02;100.00;102680.34;4942374;28;20485;-72
2023/04/09 00:37:49;;;;;;;48.72;23.42;;;;;;;7.03;100.00;102682.13;4950517;28;20093;-73
2023/04/09 00:40:15;;;;;;;49.67;23.08;;;;;;;7.04;100.00;102683.88;4943852;28;21042;-73
2023/04/09 00:42:40;;;;;;;53.60;23.27;;;;;;;7.05;100.00;102680.38;4963288;28;20042;-73
2023/04/09 00:45:07;;;;;;;51.20;23.08;;;;;;;7.05;100.00;102672.47;4964617;28;20034;-73
2023/04/09 00:47:33;;;;;;;53.00;24.17;;;;;;;7.06;100.00;102661.06;4950046;28;20189;-73
2023/04/09 00:49:59;;;;;;;50.67;23.67;;;;;;;7.06;100.00;102659.31;4959340;28;20535;-72
2023/04/09 00:52:25;;;;;;;54.05;24.40;;;;;;;7.09;100.00;102670.72;4942411;28;20034;-73
2023/04/09 00:54:51;;;;;;;49.67;23.05;;;;;;;7.08;100.00;102656.66;4965042;28;20508;-73
2023/04/09 00:57:17;;;;;;;56.75;25.27;;;;;;;7.10;100.00;102659.28;4963847;28;20049;-72
2023/04/09 00:59:43;;;;;;;54.75;25.33;;;;;;;7.10;100.00;102662.81;4962620;28;20038;-72
2023/04/09 01:02:09;;;;;;;61.38;25.95;;;;;;;7.11;100.00;102659.28;4963971;28;21657;-72
2023/04/09 01:04:35;;;;;;;51.85;25.48;;;;;;;7.13;100.00;102660.16;4964438;28;20049;-73
2023/04/09 01:07:11;;;;;;;53.42;24.90;;;;;;;7.15;100.00;102661.03;4940132;28;20034;-73
2023/04/09 01:09:41;;;;;;;56.78;24.58;;;;;;;7.16;100.00;102648.75;4961783;28;20093;-73
2023/04/09 01:12:20;;;;;;;60.47;26.23;;;;;;;7.17;100.00;102650.50;4942456;28;20051;-72
2023/04/09 01:15:06;;;;;;;58.10;25.67;;;;;;;7.18;100.00;102652.25;4956852;28;20096;-73
2023/04/09 01:18:02;;;;;;;59.72;26.30;;;;;;;7.19;100.00;102654.00;4942378;28;20038;-73
2023/04/09 01:20:31;;;;;;;51.67;24.30;;;;;;;7.19;100.00;102657.50;4944734;28;20059;-73
2023/04/09 01:23:04;;;;;;;55.63;24.92;;;;;;;7.20;100.00;102653.13;4944374;28;20655;-72
2023/04/09 01:25:45;;;;;;;52.15;24.75;;;;;;;7.22;100.00;102653.09;4942137;28;20510;-73
2023/04/09 01:28:10;;;;;;;56.10;26.30;;;;;;;7.22;100.00;102655.75;4942729;28;20324;-73
2023/04/09 01:30:36;;;;;;;55.60;24.02;;;;;;;7.22;100.00;102650.47;4944815;28;20469;-74
2023/04/09 01:33:10;;;;;;;57.30;25.63;;;;;;;7.23;100.00;102652.25;4944388;28;20070;-73
2023/04/09 01:35:36;;;;;;;57.13;25.15;;;;;;;7.24;100.00;102651.38;4957227;28;20120;-72
2023/04/09 01:38:02;;;;;;;51.60;24.42;;;;;;;7.23;100.00;102653.13;4957694;28;20726;-74
2023/04/09 01:40:28;;;;;;;54.83;24.83;;;;;;;7.25;100.00;102655.75;4944209;28;20079;-74
2023/04/09 01:42:54;;;;;;;56.08;24.55;;;;;;;7.25;100.00;102655.75;4940594;28;20046;-73
2023/04/09 01:45:20;;;;;;;55.25;22.95;;;;;;;7.25;100.00;102650.47;4944653;28;20263;-72
2023/04/09 01:47:45;;;;;;;52.63;25.00;;;;;;;7.25;100.00;102653.13;4944904;28;20195;-72
2023/04/09 01:50:11;;;;;;;53.17;24.15;;;;;;;7.23;100.00;102649.63;4944329;28;20039;-73
2023/04/09 01:52:37;;;;;;;48.63;22.65;;;;;;;7.23;100.00;102650.47;4955144;28;20039;-72
2023/04/09 01:55:02;;;;;;;52.42;22.38;;;;;;;7.24;100.00;102648.72;4944807;28;20105;-73
2023/04/09 01:57:28;;;;;;;51.33;22.30;;;;;;;7.24;100.00;102651.38;4943354;28;20078;-73
2023/04/09 01:59:54;;;;;;;50.28;22.45;;;;;;;7.23;100.00;102646.97;4939924;28;20064;-73
2023/04/09 02:02:27;;;;;;;52.17;23.60;;;;;;;7.23;100.00;102652.25;4942744;28;20038;-72
2023/04/09 02:04:57;;;;;;;50.60;21.83;;;;;;;7.22;100.00;102655.75;4942003;28;20038;-74
2023/04/09 02:07:28;;;;;;;55.58;22.98;;;;;;;7.23;100.00;102654.88;4958290;28;20042;-73
2023/04/09 02:09:54;;;;;;;54.72;23.42;;;;;;;7.21;100.00;102644.34;4955485;28;20133;-73
2023/04/09 02:12:20;;;;;;;51.13;22.42;;;;;;;7.20;100.00;102654.00;4940840;28;20051;-72
2023/04/09 02:14:47;;;;;;;57.78;22.42;;;;;;;7.20;100.00;102648.72;4937970;28;20770;-73
2023/04/09 02:17:13;;;;;;;58.97;23.73;;;;;;;7.19;100.00;102646.97;4943868;28;20053;-73
2023/04/09 02:19:39;;;;;;;58.00;24.25;;;;;;;7.18;100.00;102645.22;4941942;28;20030;-73
2023/04/09 02:22:05;;;;;;;60.20;23.65;;;;;;;7.19;100.00;102646.97;4942540;28;20037;-73
2023/04/09 02:24:30;;;;;;;61.30;23.55;;;;;;;7.19;100.00;102646.09;4943492;28;20035;-72
2023/04/09 02:26:56;;;;;;;55.70;21.70;;;;;;;7.18;100.00;102645.22;4940594;28;20449;-72
2023/04/09 02:29:22;;;;;;;55.35;22.83;;;;;;;7.18;100.00;102644.34;4944200;28;20032;-73
2023/04/09 02:31:48;;;;;;;58.78;23.58;;;;;;;7.16;100.00;102649.63;4927284;28;20095;-72
2023/04/09 02:34:14;;;;;;;63.00;24.85;;;;;;;7.16;100.00;102638.19;4943203;28;20027;-72
2023/04/09 02:36:39;;;;;;;64.35;24.55;;;;;;;7.15;100.00;102642.59;4941583;28;20913;-73
2023/04/09 02:39:05;;;;;;;55.53;23.20;;;;;;;7.14;100.00;102643.47;4944309;28;20560;-72
2023/04/09 02:41:30;;;;;;;62.67;24.23;;;;;;;7.14;100.00;102642.59;4942935;28;20039;-72
2023/04/09 02:43:56;;;;;;;61.05;23.60;;;;;;;7.12;100.00;102632.06;4941989;28;20035;-73
2023/04/09 02:46:21;;;;;;;61.17;25.15;;;;;;;7.10;100.00;102636.47;4957761;28;20166;-73
2023/04/09 02:48:47;;;;;;;59.05;24.00;;;;;;;7.08;100.00;102632.94;4942914;28;20073;-73
2023/04/09 02:51:12;;;;;;;59.28;24.55;;;;;;;7.06;100.00;102624.19;4942588;28;20035;-72
2023/04/09 02:53:39;;;;;;;63.70;24.23;;;;;;;7.05;100.00;102628.59;4942442;28;20051;-72
2023/04/09 02:56:05;;;;;;;65.15;24.23;;;;;;;7.02;100.00;102627.69;4957137;28;20158;-73
2023/04/09 02:58:30;;;;;;;59.75;23.45;;;;;;;7.01;100.00;102623.31;4944094;28;20043;-72
2023/04/09 03:00:56;;;;;;;60.20;22.08;;;;;;;6.96;100.00;102628.59;4943114;28;20035;-73
2023/04/09 03:03:21;;;;;;;57.75;22.42;;;;;;;6.95;100.00;102628.56;4934890;28;20031;-72
2023/04/09 03:05:47;;;;;;;60.17;22.08;;;;;;;6.93;100.00;102629.47;4936938;28;20062;-73
2023/04/09 03:08:13;;;;;;;62.35;22.38;;;;;;;6.89;100.00;102627.72;4943467;28;20047;-72
2023/04/09 03:10:51;;;;;;;56.05;21.30;;;;;;;6.87;100.00;102625.97;4927444;28;20038;-72
2023/04/09 03:13:17;;;;;;;58.05;21.10;;;;;;;6.86;100.00;102632.13;4926938;28;20130;-73
2023/04/09 03:15:42;;;;;;;53.97;20.38;;;;;;;6.84;100.00;102633.84;4918664;28;20094;-73
2023/04/09 03:18:08;;;;;;;51.40;20.38;;;;;;;6.82;100.00;102630.34;4924053;28;20047;-73
2023/04/09 03:20:38;;;;;;;48.67;19.02;;;;;;;6.81;100.00;102631.25;4905235;28;20051;-72
2023/04/09 03:23:03;;;;;;;52.55;19.80;;;;;;;6.82;100.00;102631.25;4894854;28;20459;-73
2023/04/09 03:25:29;;;;;;;51.30;19.15;;;;;;;6.83;100.00;102621.56;4924095;28;20073;-73
2023/04/09 03:27:54;;;;;;;55.90;20.15;;;;;;;6.81;100.00;102626.84;4923937;28;20054;-73
2023/04/09 03:30:20;;;;;;;53.22;21.20;;;;;;;6.82;100.00;102619.81;4935483;28;20043;-72
2023/04/09 03:32:45;;;;;;;52.70;21.38;;;;;;;6.80;100.00;102614.56;4924290;28;20089;-72
2023/04/09 03:35:11;;;;;;;53.42;21.63;;;;;;;6.81;100.00;102616.31;4923942;28;20482;-72
2023/04/09 03:37:36;;;;;;;56.92;21.50;;;;;;;6.79;100.00;102607.53;4922677;28;20505;-73
2023/04/09 03:40:02;;;;;;;45.63;19.63;;;;;;;6.78;100.00;102613.69;4923741;28;20506;-72
2023/04/09 03:42:28;;;;;;;49.40;19.50;;;;;;;6.75;100.00;102621.59;4938444;28;20273;-73
2023/04/09 03:44:53;;;;;;;51.05;19.23;;;;;;;6.74;100.00;102612.81;4923483;28;20091;-73
2023/04/09 03:47:22;;;;;;;49.53;19.70;;;;;;;6.74;100.00;102614.56;4922441;28;20031;-72
2023/04/09 03:49:47;;;;;;;55.38;21.05;;;;;;;6.72;100.00;102608.44;4923580;28;20050;-73
2023/04/09 03:52:13;;;;;;;56.50;19.52;;;;;;;6.72;100.00;102613.69;4924254;28;20054;-74
2023/04/09 03:54:39;;;;;;;47.05;19.23;;;;;;;6.71;100.00;102611.94;4923730;28;20665;-72
2023/04/09 03:57:04;;;;;;;47.50;18.98;;;;;;;6.71;100.00;102609.31;4937017;28;20058;-72
2023/04/09 03:59:30;;;;;;;47.80;18.95;;;;;;;6.70;100.00;102610.19;4923810;28;20339;-72
2023/04/09 04:01:55;;;;;;;53.58;20.35;;;;;;;6.69;100.00;102608.44;4922993;28;20067;-73
2023/04/09 04:04:22;;;;;;;50.78;19.20;;;;;;;6.68;100.00;102594.41;4927269;28;20090;-72
2023/04/09 04:06:48;;;;;;;47.45;18.13;;;;;;;6.68;100.00;102604.03;4927062;28;20478;-73
2023/04/09 04:09:13;;;;;;;44.03;17.70;;;;;;;6.66;100.00;102599.66;4909089;29;20039;-73
2023/04/09 04:11:39;;;;;;;47.38;19.73;;;;;;;6.64;100.00;102598.78;4930229;28;20050;-72
2023/04/09 04:14:04;;;;;;;43.15;17.67;;;;;;;6.62;100.00;102603.19;4963766;28;20041;-71
2023/04/09 04:16:31;;;;;;;43.53;17.95;;;;;;;6.60;100.00;102604.91;4947266;28;20382;-72
2023/04/09 04:18:56;;;;;;;43.88;16.95;;;;;;;6.59;100.00;102603.16;4964582;28;20045;-72
2023/04/09 04:21:22;;;;;;;43.72;17.90;;;;;;;6.58;100.00;102609.31;4946416;28;20043;-72
2023/04/09 04:23:47;;;;;;;49.72;18.70;;;;;;;6.57;100.00;102604.94;4963451;28;20042;-72
2023/04/09 04:26:13;;;;;;;48.50;18.45;;;;;;;6.57;100.00;102610.19;4964363;28;20046;-72
2023/04/09 04:28:40;;;;;;;51.78;19.85;;;;;;;6.58;100.00;102611.94;4930017;28;20090;-73
2023/04/09 04:31:09;;;;;;;47.90;18.52;;;;;;;6.57;100.00;102610.19;4944234;28;20144;-72
2023/04/09 04:33:35;;;;;;;49.42;17.42;;;;;;;6.57;100.00;102614.56;4962654;28;20126;-73
2023/04/09 04:36:08;;;;;;;48.55;18.23;;;;;;;6.56;100.00;102613.72;4949671;28;20560;-72
2023/04/09 04:38:34;;;;;;;47.45;18.77;;;;;;;6.57;100.00;102617.19;4963513;28;20133;-72
2023/04/09 04:41:00;;;;;;;46.30;17.83;;;;;;;6.56;100.00;102616.34;4962505;28;20081;-72
2023/04/09 04:43:26;;;;;;;44.45;18.02;;;;;;;6.55;100.00;102617.22;4963193;28;20042;-71
2023/04/09 04:45:51;;;;;;;46.90;17.35;;;;;;;6.54;100.00;102618.06;4965123;28;20683;-71
2023/04/09 04:48:17;;;;;;;45.97;18.40;;;;;;;6.53;100.00;102624.22;4964665;28;21611;-71
2023/04/09 04:50:42;;;;;;;42.58;17.10;;;;;;;6.54;100.00;102615.44;4962261;28;20773;-72
2023/04/09 04:53:08;;;;;;;48.10;17.80;;;;;;;6.54;100.00;102615.44;4963799;28;20054;-72
2023/04/09 04:55:38;;;;;;;45.10;17.30;;;;;;;6.55;100.00;102617.22;4949438;28;20572;-72
2023/04/09 04:58:05;;;;;;;41.55;17.27;;;;;;;6.56;100.00;102624.25;4948984;28;20034;-71
2023/04/09 05:00:30;;;;;;;45.85;17.75;;;;;;;6.57;100.00;102619.84;4935026;28;20465;-72
2023/04/09 05:02:56;;;;;;;46.55;18.40;;;;;;;6.58;100.00;102621.63;4928961;28;20121;-72
2023/04/09 05:05:21;;;;;;;47.95;18.58;;;;;;;6.58;100.00;102611.09;4942709;28;20138;-73
2023/04/09 05:07:47;;;;;;;43.75;17.35;;;;;;;6.58;100.00;102614.56;4928085;28;20050;-73
2023/04/09 05:10:12;;;;;;;45.35;18.42;;;;;;;6.58;100.00;102606.69;4963642;28;20046;-72
2023/04/09 05:12:38;;;;;;;49.45;18.13;;;;;;;6.58;100.00;102611.94;4932585;28;20062;-72
2023/04/09 05:15:04;;;;;;;48.63;18.00;;;;;;;6.58;100.00;102611.94;4947213;28;20050;-72
2023/04/09 05:17:30;;;;;;;42.95;17.08;;;;;;;6.59;100.00;102607.56;4961324;28;20047;-72
2023/04/09 05:19:56;;;;;;;45.33;17.33;;;;;;;6.58;100.00;102603.19;4961943;28;20113;-72
2023/04/09 05:22:22;;;;;;;42.70;18.05;;;;;;;6.58;100.00;102605.81;4963383;28;20038;-72
2023/04/09 05:24:48;;;;;;;42.35;17.42;;;;;;;6.58;100.00;102603.19;4963798;28;20042;-72
2023/04/09 05:27:13;;;;;;;42.25;16.70;;;;;;;6.59;100.00;102605.81;4961737;28;20042;-72
2023/04/09 05:29:39;;;;;;;45.55;17.48;;;;;;;6.59;100.00;102605.81;4963671;28;20128;-72
2023/04/09 05:32:05;;;;;;;43.95;17.65;;;;;;;6.59;100.00;102611.06;4946034;28;20042;-72
2023/04/09 05:34:31;;;;;;;41.92;16.20;;;;;;;6.60;100.00;102611.97;4961924;28;20042;-72
2023/04/09 05:36:56;;;;;;;45.78;16.85;;;;;;;6.59;100.00;102613.69;4941094;28;20050;-72
2023/04/09 05:39:22;;;;;;;42.97;17.15;;;;;;;6.60;100.00;102609.31;4963358;28;20042;-72
2023/04/09 05:41:47;;;;;;;41.35;16.80;;;;;;;6.60;100.00;102609.31;4947973;28;20833;-73
2023/04/09 05:44:13;;;;;;;40.35;17.52;;;;;;;6.62;100.00;102618.97;4959457;28;20121;-72
2023/04/09 05:46:38;;;;;;;39.13;15.80;;;;;;;6.61;100.00;102614.59;4963097;28;20050;-73
2023/04/09 05:49:04;;;;;;;41.08;16.17;;;;;;;6.63;100.00;102615.47;4941614;28;20108;-72
2023/04/09 05:51:29;;;;;;;37.78;16.38;;;;;;;6.63;100.00;102617.19;4945916;28;20140;-73
2023/04/09 05:53:55;;;;;;;45.00;17.17;;;;;;;6.64;100.00;102611.06;4961628;28;20483;-73
2023/04/09 05:56:23;;;;;;;41.97;16.60;;;;;;;6.64;100.00;102611.94;4940821;28;20112;-73
2023/04/09 05:58:48;;;;;;;36.70;16.58;;;;;;;6.64;100.00;102617.22;4945643;28;20152;-73
2023/04/09 06:01:14;;;;;;;38.83;16.40;;;;;;;6.64;100.00;102613.69;4961292;28;20555;-72
2023/04/09 06:03:40;;;;;;;34.00;15.63;;;;;;;6.65;100.00;102615.47;4961556;28;20042;-71
2023/04/09 06:06:05;;;;;;;38.20;15.85;;;;;;;6.63;100.00;102614.56;4947710;28;20076;-72
2023/04/09 06:08:31;;;;;;;37.15;15.15;;;;;;;6.65;100.00;102618.09;4962975;28;20490;-72
2023/04/09 06:10:57;;;;;;;40.00;16.30;;;;;;;6.65;100.00;102612.84;4945538;28;20693;-72
2023/04/09 06:13:23;;;;;;;33.90;16.27;;;;;;;6.66;100.00;102612.81;4956996;28;20047;-71
2023/04/09 06:15:48;;;;;;;33.92;15.45;;;;;;;6.69;100.00;102611.09;4943379;28;20041;-73
2023/04/09 06:18:14;;;;;;;38.08;14.85;;;;;;;6.71;100.00;102614.56;4943918;28;20971;-72
2023/04/09 06:20:40;;;;;;;34.15;15.88;;;;;;;6.72;100.00;102611.06;4941730;28;20536;-72
2023/04/09 06:23:05;;;;;;;37.30;15.15;;;;;;;6.74;100.00;102614.56;4943599;28;20947;-72
2023/04/09 06:25:31;;;;;;;34.25;15.00;;;;;;;6.75;100.00;102614.56;4942778;28;20071;-72
2023/04/09 06:27:56;;;;;;;33.35;15.00;;;;;;;6.77;100.00;102617.22;4941968;28;20046;-75
2023/04/09 06:30:22;;;;;;;35.95;15.88;;;;;;;6.77;100.00;102618.06;4927424;28;20701;-73
2023/04/09 06:32:48;;;;;;;34.88;14.77;;;;;;;6.80;100.00;102625.09;4942460;28;20147;-73
2023/04/09 06:35:14;;;;;;;31.55;14.43;;;;;;;6.82;100.00;102631.25;4943273;28;20149;-73
2023/04/09 06:37:40;;;;;;;38.88;15.23;;;;;;;6.83;100.00;102630.38;4941921;28;20041;-73
2023/04/09 06:40:06;;;;;;;37.13;16.05;;;;;;;6.83;100.00;102632.09;4927804;28;20038;-72
2023/04/09 06:42:32;;;;;;;38.35;15.73;;;;;;;6.83;100.00;102627.72;4942899;28;20057;-73
2023/04/09 06:44:58;;;;;;;37.50;15.63;;;;;;;6.84;100.00;102629.47;4943072;28;20047;-72
2023/04/09 06:47:23;;;;;;;34.22;14.52;;;;;;;6.85;100.00;102630.34;4941227;28;20051;-72
2023/04/09 06:49:49;;;;;;;36.85;16.13;;;;;;;6.86;100.00;102632.97;4943609;28;20035;-73
2023/04/09 06:52:15;;;;;;;36.78;15.57;;;;;;;6.87;100.00;102633.88;4943157;28;20053;-72
2023/04/09 06:54:50;;;;;;;37.25;15.00;;;;;;;6.86;100.00;102634.75;4943356;28;20455;-73
2023/04/09 06:57:16;;;;;;;33.72;14.52;;;;;;;6.87;100.00;102642.63;4943246;28;20818;-73
2023/04/09 06:59:41;;;;;;;31.92;14.82;;;;;;;6.86;100.00;102638.25;4956981;28;20031;-73
2023/04/09 07:02:07;;;;;;;36.47;14.75;;;;;;;6.83;100.00;102635.63;4943365;28;20019;-72
2023/04/09 07:04:33;;;;;;;33.05;15.82;;;;;;;6.84;100.00;102634.75;4941164;28;20043;-74
2023/04/09 07:06:58;;;;;;;36.25;15.82;;;;;;;6.84;100.00;102641.75;4941120;28;20121;-72
2023/04/09 07:09:24;;;;;;;32.50;14.90;;;;;;;6.83;100.00;102640.91;4927328;28;20062;-73
2023/04/09 07:11:50;;;;;;;35.15;15.32;;;;;;;6.83;100.00;102647.91;4947192;28;20066;-73
2023/04/09 07:14:15;;;;;;;32.22;15.00;;;;;;;6.81;100.00;102647.91;4958694;28;20765;-73
2023/04/09 07:16:41;;;;;;;34.47;15.90;;;;;;;6.78;100.00;102642.66;4940152;28;20054;-72
2023/04/09 07:19:07;;;;;;;36.58;15.20;;;;;;;6.77;100.00;102644.38;4962734;28;20078;-72
2023/04/09 07:21:33;;;;;;;30.67;14.52;;;;;;;6.76;100.00;102647.91;4961036;28;20066;-71
2023/04/09 07:23:58;;;;;;;31.30;14.93;;;;;;;6.76;100.00;102649.69;4962475;28;20926;-72
2023/04/09 07:26:24;;;;;;;31.67;15.57;;;;;;;6.77;100.00;102646.16;4962413;28;20100;-73
2023/04/09 07:28:49;;;;;;;34.60;14.65;;;;;;;6.79;100.00;102647.94;4962076;28;20161;-72
2023/04/09 07:31:15;;;;;;;33.60;15.98;;;;;;;6.79;100.00;102647.03;4938836;28;20445;-72
2023/04/09 07:33:40;;;;;;;34.38;15.18;;;;;;;6.81;100.00;102650.53;4961163;28;20137;-72
2023/04/09 07:36:06;;;;;;;33.60;15.68;;;;;;;6.85;100.00;102656.66;4962490;28;20088;-73
2023/04/09 07:38:32;;;;;;;37.47;16.25;;;;;;;6.84;100.00;102653.19;4965212;28;20044;-73
2023/04/09 07:40:57;;;;;;;36.45;15.85;;;;;;;6.84;100.00;102645.28;4960420;28;20039;-73
2023/04/09 07:43:23;;;;;;;42.00;16.95;;;;;;;6.85;100.00;102641.75;4963933;28;20042;-73
2023/04/09 07:45:50;;;;;;;34.88;15.25;;;;;;;6.86;100.00;102646.16;4963952;28;21212;-73
2023/04/09 07:48:16;;;;;;;34.35;15.70;;;;;;;6.87;100.00;102654.94;4964519;28;20042;-73
2023/04/09 07:50:43;;;;;;;30.98;15.52;;;;;;;6.87;100.00;102650.53;4965643;28;20069;-73
2023/04/09 07:53:10;;;;;;;39.25;16.30;;;;;;;6.87;100.00;102654.94;4966028;28;20048;-72
2023/04/09 07:55:36;;;;;;;38.10;16.55;;;;;;;6.87;100.00;102655.78;4965471;28;20034;-72
2023/04/09 07:58:03;;;;;;;33.72;15.25;;;;;;;6.82;100.00;102662.84;4943069;28;20034;-74
2023/04/09 08:00:28;;;;;;;41.33;16.58;;;;;;;6.82;100.00;102657.56;4965025;28;20046;-72
2023/04/09 08:02:54;;;;;;;35.50;15.85;;;;;;;6.82;100.00;102657.56;4965102;28;20054;-73
2023/04/09 08:05:20;;;;;;;36.75;16.48;;;;;;;6.82;100.00;102649.69;4921461;28;20038;-73
2023/04/09 08:07:45;;;;;;;40.45;16.95;;;;;;;6.82;100.00;102652.31;4929070;28;20046;-72
2023/04/09 08:10:13;;;;;;;33.88;16.27;;;;;;;6.84;100.00;102654.91;4947866;28;20566;-74
2023/04/09 08:12:40;;;;;;;37.47;16.58;;;;;;;6.83;100.00;102654.06;4948547;28;20432;-73
2023/04/09 08:15:06;;;;;;;36.58;15.77;;;;;;;6.85;100.00;102643.50;4963694;28;20038;-73
2023/04/09 08:17:32;;;;;;;36.65;17.02;;;;;;;6.86;100.00;102650.56;4965037;28;20437;-72
2023/04/09 08:19:57;;;;;;;37.95;16.38;;;;;;;6.87;100.00;102650.53;4964875;28;20050;-73
2023/04/09 08:22:23;;;;;;;38.30;16.02;;;;;;;6.91;100.00;102651.41;4964657;28;20774;-73
2023/04/09 08:24:52;;;;;;;36.67;15.43;;;;;;;6.93;100.00;102650.53;4963205;28;20096;-72
2023/04/09 08:27:20;;;;;;;35.90;15.18;;;;;;;6.96;100.00;102648.78;4944020;28;20033;-72
2023/04/09 08:29:46;;;;;;;41.22;16.60;;;;;;;6.96;100.00;102640.88;4943794;28;20041;-73
2023/04/09 08:32:11;;;;;;;42.05;16.83;;;;;;;7.00;100.00;102646.16;4964447;28;20046;-73
2023/04/09 08:34:37;;;;;;;38.58;16.77;;;;;;;7.01;100.00;102647.91;4963514;28;20042;-73
2023/04/09 08:37:02;;;;;;;42.10;17.05;;;;;;;7.04;100.00;102645.25;4964831;28;20529;-73
2023/04/09 08:39:28;;;;;;;40.30;16.67;;;;;;;7.06;100.00;102645.25;4964667;28;20073;-72
2023/04/09 08:41:57;;;;;;;41.05;16.55;;;;;;;7.08;100.00;102648.75;4942283;28;20038;-73
2023/04/09 08:44:25;;;;;;;37.55;16.92;;;;;;;7.13;100.00;102656.66;4964962;28;20080;-72
2023/04/09 08:46:52;;;;;;;39.85;17.80;;;;;;;7.15;100.00;102655.75;4960576;28;20046;-72
2023/04/09 08:49:19;;;;;;;37.47;17.27;;;;;;;7.17;100.00;102661.03;4948458;28;20165;-73
2023/04/09 08:51:46;;;;;;;36.00;15.32;;;;;;;7.20;100.00;102664.53;4941474;28;20137;-73
2023/04/09 08:54:15;;;;;;;40.38;16.67;;;;;;;7.24;100.00;102664.53;4963589;28;20130;-73
2023/04/09 08:56:40;;;;;;;41.45;17.63;;;;;;;7.28;100.00;102667.16;4963989;28;20026;-71
2023/04/09 08:59:05;;;;;;;34.22;16.13;;;;;;;7.32;100.00;102660.13;4962549;28;20141;-73
2023/04/09 09:01:32;;;;;;;42.80;18.27;;;;;;;7.34;100.00;102658.34;4925500;28;21571;-73
2023/04/09 09:04:09;;;;;;;43.22;17.40;;;;;;;7.36;100.00;102661.88;4964217;28;20781;-73
2023/04/09 09:06:37;;;;;;;44.28;17.90;;;;;;;7.37;100.00;102655.72;4947229;28;20074;-73
2023/04/09 09:09:14;;;;;;;37.85;16.75;;;;;;;7.41;100.00;102653.97;4961526;28;20129;-73
2023/04/09 09:11:45;;;;;;;39.45;17.23;;;;;;;7.44;100.00;102651.28;4961250;28;20397;-73
2023/04/09 09:14:12;;;;;;;41.00;17.42;;;;;;;7.45;100.00;102653.94;4942597;28;20110;-74
2023/04/09 09:16:43;;;;;;;37.85;18.20;;;;;;;7.47;100.00;102646.03;4946165;28;20035;-73
2023/04/09 09:19:11;;;;;;;38.08;17.00;;;;;;;7.50;100.00;102650.38;4946418;28;20509;-73
2023/04/09 09:21:38;;;;;;;38.05;17.60;;;;;;;7.53;100.00;102650.41;4946147;28;20112;-74
2023/04/09 09:24:15;;;;;;;42.05;18.55;;;;;;;7.55;100.00;102645.97;4949681;28;20045;-73
2023/04/09 09:26:42;;;;;;;42.38;17.02;;;;;;;7.58;100.00;102651.25;4961677;28;20991;-73
2023/04/09 09:29:08;;;;;;;38.50;17.73;;;;;;;7.60;100.00;102653.00;4963862;28;20925;-73
2023/04/09 09:31:49;;;;;;;38.15;17.33;;;;;;;7.61;100.00;102648.59;4945523;28;20097;-73
2023/04/09 09:34:16;;;;;;;39.28;17.42;;;;;;;7.60;100.00;102646.84;4964188;28;20039;-72
2023/04/09 09:36:42;;;;;;;38.72;17.17;;;;;;;7.61;100.00;102653.88;4962269;28;20076;-73
2023/04/09 09:39:11;;;;;;;36.80;16.90;;;;;;;7.59;100.00;102651.22;4963638;28;20030;-73
2023/04/09 09:41:41;;;;;;;36.80;17.27;;;;;;;7.61;100.00;102644.22;4941197;28;20136;-74
2023/04/09 09:44:19;;;;;;;40.63;18.13;;;;;;;7.64;100.00;102645.97;4944140;28;20314;-73
2023/04/09 09:46:44;;;;;;;39.33;18.30;;;;;;;7.67;100.00;102642.44;4963288;28;20514;-75
2023/04/09 09:49:10;;;;;;;39.85;16.92;;;;;;;7.72;100.00;102648.56;4948803;28;20037;-73
2023/04/09 09:51:38;;;;;;;37.65;16.95;;;;;;;7.76;100.00;102631.84;4948310;28;20042;-73
2023/04/09 09:54:06;;;;;;;36.00;16.67;;;;;;;7.84;100.00;102639.72;4928538;28;20557;-74
2023/04/09 09:56:34;;;;;;;37.40;16.08;;;;;;;7.89;100.00;102632.66;4962558;28;20398;-72
2023/04/09 09:59:07;;;;;;;35.63;16.55;;;;;;;7.98;100.00;102643.16;4940957;28;20042;-74
2023/04/09 10:01:34;;;;;;;36.47;16.47;;;;;;;8.06;100.00;102636.97;4936129;28;20065;-73
2023/04/09 10:04:00;;;;;;;38.13;17.15;;;;;;;8.09;100.00;102634.28;4926925;28;20383;-74
2023/04/09 10:06:27;;;;;;;36.53;16.23;;;;;;;8.13;100.00;102636.91;4942137;28;20517;-73
2023/04/09 10:08:56;;;;;;;34.47;16.70;;;;;;;8.18;100.00;102636.00;4931442;28;20085;-74
2023/04/09 10:11:23;;;;;;;36.15;16.40;;;;;;;8.20;100.00;102637.75;4958213;28;20042;-74
2023/04/09 10:13:58;;;;;;;36.35;16.85;;;;;;;8.22;100.00;102640.38;4930283;28;20038;-74
2023/04/09 10:16:25;;;;;;;35.58;16.02;;;;;;;8.23;100.00;102632.44;4963182;28;20521;-73
2023/04/09 10:18:52;;;;;;;36.08;15.80;;;;;;;8.27;100.00;102630.66;4961045;28;21801;-73
2023/04/09 10:21:32;;;;;;;29.83;15.70;;;;;;;8.29;100.00;102626.25;4959393;28;20062;-75
2023/04/09 10:23:58;;;;;;;33.88;16.08;;;;;;;8.31;100.00;102619.19;4959421;28;20039;-73
2023/04/09 10:26:29;;;;;;;28.10;15.00;;;;;;;8.37;100.00;102623.53;4960708;28;20038;-73
2023/04/09 10:29:26;;;;;;;38.97;16.20;;;;;;;8.43;100.00;102616.47;4942664;28;20043;-74
2023/04/09 10:32:04;;;;;;;31.00;15.30;;;;;;;8.47;100.00;102619.94;4962538;28;20073;-74
2023/04/09 10:34:38;;;;;;;29.73;15.95;;;;;;;8.48;100.00;102611.13;4962041;28;20050;-73
2023/04/09 10:37:07;;;;;;;32.33;15.68;;;;;;;8.51;100.00;102611.13;4945553;28;20057;-73
2023/04/09 10:39:32;;;;;;;32.97;15.40;;;;;;;8.53;100.00;102612.03;4956889;28;20042;-73
2023/04/09 10:42:01;;;;;;;32.53;15.52;;;;;;;8.55;100.00;102620.78;4927026;28;20115;-74
2023/04/09 10:44:27;;;;;;;32.40;15.68;;;;;;;8.56;100.00;102617.25;4960187;28;20034;-72
2023/04/09 10:47:14;;;;;;;34.45;15.95;;;;;;;8.59;100.00;102612.81;4959318;28;20084;-74
2023/04/09 10:49:41;;;;;;;34.83;15.80;;;;;;;8.62;100.00;102612.81;4942096;28;20046;-73
2023/04/09 10:52:10;;;;;;;31.52;15.32;;;;;;;8.65;100.00;102612.78;4962231;28;20125;-74
2023/04/09 10:54:38;;;;;;;35.08;16.27;;;;;;;8.66;100.00;102612.78;4962169;28;20077;-72
2023/04/09 10:57:06;;;;;;;32.28;15.00;;;;;;;8.75;100.00;102605.66;4939825;28;20039;-73
2023/04/09 10:59:46;;;;;;;28.67;14.20;;;;;;;8.81;100.00;102600.31;4962027;28;20052;-72
2023/04/09 11:02:36;;;;;;;30.40;14.55;;;;;;;8.89;100.00;102600.25;4962867;28;20073;-72
2023/04/09 11:05:16;;;;;;;30.73;14.90;;;;;;;8.99;100.00;102596.59;4961095;28;20031;-74
2023/04/09 11:07:58;;;;;;;33.05;15.25;;;;;;;9.08;100.00;102593.88;4949085;28;20120;-74
2023/04/09 11:10:23;;;;;;;32.55;15.25;;;;;;;9.20;100.00;102589.31;4960803;28;20263;-74